createdAt,value
2023-03-28T00:01:44.514Z,1.30
2023-03-28T00:04:13.058Z,1.35
2023-03-28T00:06:45.416Z,1.10
2023-03-28T00:09:14.535Z,1.65
2023-03-28T00:11:42.296Z,1.40
2023-03-28T00:14:10.264Z,1.30
2023-03-28T00:16:39.822Z,1.85
2023-03-28T00:19:11.535Z,1.67
2023-03-28T00:21:42.904Z,1.63
2023-03-28T00:24:13.731Z,1.48
2023-03-28T00:26:44.655Z,1.40
2023-03-28T00:29:16.584Z,0.98
2023-03-28T00:31:44.492Z,1.80
2023-03-28T00:34:12.330Z,1.42
2023-03-28T00:36:41.580Z,1.88
2023-03-28T00:39:10.290Z,1.80
2023-03-28T00:41:41.547Z,1.50
2023-03-28T00:44:48.850Z,1.88
2023-03-28T00:47:30.794Z,1.83
2023-03-28T00:50:02.580Z,1.80
2023-03-28T00:52:34.992Z,2.05
2023-03-28T00:55:05.834Z,1.45
2023-03-28T00:57:33.651Z,1.48
2023-03-28T01:00:02.966Z,1.52
2023-03-28T01:02:31.428Z,1.80
2023-03-28T01:05:03.825Z,1.27
2023-03-28T01:07:37.967Z,1.60
2023-03-28T01:10:08.036Z,1.73
2023-03-28T01:12:36.848Z,1.70
2023-03-28T01:15:06.934Z,1.58
2023-03-28T01:17:35.661Z,2.30
2023-03-28T01:20:18.889Z,1.80
2023-03-28T01:23:27.602Z,1.67
2023-03-28T01:26:15.279Z,1.67
2023-03-28T01:29:01.253Z,1.52
2023-03-28T01:31:49.957Z,1.73
2023-03-28T01:34:46.032Z,1.75
2023-03-28T01:37:25.981Z,2.15
2023-03-28T01:40:11.375Z,1.88
2023-03-28T01:46:25.027Z,1.10
2023-03-28T01:49:02.721Z,1.52
2023-03-28T01:51:42.732Z,1.90
2023-03-28T01:54:17.964Z,2.00
2023-03-28T01:56:52.618Z,1.90
2023-03-28T01:59:24.823Z,1.95
2023-03-28T02:01:59.495Z,1.77
2023-03-28T02:04:29.172Z,1.98
2023-03-28T02:06:58.326Z,1.30
2023-03-28T02:09:29.435Z,1.38
2023-03-28T02:12:02.599Z,1.50
2023-03-28T02:14:37.610Z,1.17
2023-03-28T02:17:15.443Z,1.58
2023-03-28T02:19:50.231Z,1.80
2023-03-28T02:22:24.072Z,1.73
2023-03-28T02:24:53.352Z,1.65
2023-03-28T02:27:22.891Z,1.80
2023-03-28T02:29:51.343Z,1.98
2023-03-28T02:32:21.696Z,1.70
2023-03-28T02:34:53.447Z,1.83
2023-03-28T02:37:32.533Z,1.83
2023-03-28T02:40:25.633Z,1.98
2023-03-28T02:43:10.313Z,1.90
2023-03-28T02:45:59.497Z,2.10
2023-03-28T02:48:45.374Z,2.33
2023-03-28T02:51:23.599Z,1.92
2023-03-28T02:54:05.232Z,1.75
2023-03-28T02:56:43.088Z,1.77
2023-03-28T02:59:15.842Z,1.60
2023-03-28T03:01:44.230Z,1.42
2023-03-28T03:04:13.537Z,2.00
2023-03-28T03:06:42.322Z,1.48
2023-03-28T03:09:10.242Z,1.90
2023-03-28T03:11:39.739Z,1.80
2023-03-28T03:14:07.597Z,1.50
2023-03-28T03:16:38.499Z,2.25
2023-03-28T03:19:07.569Z,1.55
2023-03-28T03:21:36.484Z,1.90
2023-03-28T03:24:04.770Z,2.15
2023-03-28T03:26:32.685Z,2.00
2023-03-28T03:32:44.190Z,1.90
2023-03-28T03:35:12.481Z,2.20
2023-03-28T03:37:40.446Z,1.58
2023-03-28T03:40:09.924Z,2.10
2023-03-28T03:42:37.686Z,2.10
2023-03-28T03:45:06.981Z,2.03
2023-03-28T03:47:34.688Z,2.42
2023-03-28T03:50:03.861Z,1.88
2023-03-28T03:52:31.606Z,1.92
2023-03-28T03:54:59.306Z,2.03
2023-03-28T03:57:26.993Z,1.80
2023-03-28T03:59:54.716Z,2.05
2023-03-28T04:02:22.498Z,2.20
2023-03-28T04:04:50.286Z,1.95
2023-03-28T04:07:19.386Z,2.17
2023-03-28T04:09:47.164Z,2.33
2023-03-28T04:12:14.899Z,2.40
2023-03-28T04:14:42.711Z,2.00
2023-03-28T04:17:13.681Z,2.00
2023-03-28T04:19:41.463Z,2.47
2023-03-28T04:22:12.718Z,1.98
2023-03-28T04:24:44.728Z,2.80
2023-03-28T04:27:13.647Z,2.20
2023-03-28T04:29:41.661Z,1.98
2023-03-28T04:32:11.208Z,2.50
2023-03-28T04:34:39.184Z,2.70
2023-03-28T04:37:06.965Z,1.88
2023-03-28T04:39:35.930Z,3.17
2023-03-28T04:42:05.923Z,2.10
2023-03-28T04:44:33.755Z,2.20
2023-03-28T04:47:01.549Z,2.08
2023-03-28T04:49:29.483Z,2.40
2023-03-28T04:51:57.159Z,1.98
2023-03-28T04:54:25.058Z,1.98
2023-03-28T04:56:53.240Z,2.45
2023-03-28T04:59:22.541Z,2.20
2023-03-28T05:01:50.730Z,2.40
2023-03-28T05:04:18.741Z,2.42
2023-03-28T05:06:46.552Z,2.38
2023-03-28T05:09:14.896Z,2.15
2023-03-28T05:11:43.091Z,2.47
2023-03-28T05:14:10.968Z,1.88
2023-03-28T05:16:40.104Z,2.42
2023-03-28T05:19:09.951Z,2.20
2023-03-28T05:21:37.910Z,2.17
2023-03-28T05:24:06.840Z,1.92
2023-03-28T05:26:34.591Z,2.50
2023-03-28T05:29:02.352Z,2.88
2023-03-28T05:31:30.814Z,2.40
2023-03-28T05:34:00.207Z,1.80
2023-03-28T05:36:29.019Z,2.85
2023-03-28T05:38:56.923Z,1.88
2023-03-28T05:41:24.774Z,2.45
2023-03-28T05:43:52.621Z,2.00
2023-03-28T05:46:20.704Z,2.22
2023-03-28T05:48:49.611Z,2.30
2023-03-28T05:51:19.489Z,2.70
2023-03-28T05:53:50.749Z,2.53
2023-03-28T05:56:18.696Z,2.90
2023-03-28T05:58:46.813Z,2.35
2023-03-28T06:01:18.371Z,2.15
2023-03-28T06:03:46.452Z,2.63
2023-03-28T06:06:27.616Z,2.10
2023-03-28T06:08:55.945Z,2.13
2023-03-28T06:11:23.703Z,1.90
2023-03-28T06:13:51.563Z,2.00
2023-03-28T06:16:19.433Z,2.05
2023-03-28T06:19:10.450Z,2.60
2023-03-28T06:21:43.971Z,2.35
2023-03-28T06:27:52.608Z,2.53
2023-03-28T06:30:22.976Z,2.20
2023-03-28T06:32:50.798Z,2.35
2023-03-28T06:35:18.831Z,2.88
2023-03-28T06:37:48.147Z,2.55
2023-03-28T06:40:16.172Z,2.00
2023-03-28T06:42:44.245Z,2.10
2023-03-28T06:45:13.714Z,2.20
2023-03-28T06:47:41.536Z,1.52
2023-03-28T06:50:10.290Z,2.47
2023-03-28T06:52:38.085Z,2.10
2023-03-28T06:55:08.026Z,2.40
2023-03-28T06:57:35.997Z,2.03
2023-03-28T07:00:04.511Z,2.75
2023-03-28T07:02:32.478Z,2.20
2023-03-28T07:05:00.337Z,2.20
2023-03-28T07:07:28.162Z,2.25
2023-03-28T07:09:56.120Z,1.95
2023-03-28T07:12:26.259Z,1.88
2023-03-28T07:14:54.087Z,2.88
2023-03-28T07:17:21.905Z,2.47
2023-03-28T07:19:51.191Z,2.47
2023-03-28T07:22:19.033Z,2.30
2023-03-28T07:24:46.905Z,1.85
2023-03-28T07:27:16.481Z,1.53
2023-03-28T07:29:45.963Z,2.90
2023-03-28T07:32:14.228Z,1.60
2023-03-28T07:34:42.068Z,1.83
2023-03-28T07:37:10.605Z,1.83
2023-03-28T07:39:39.883Z,2.17
2023-03-28T07:42:11.796Z,1.85
2023-03-28T07:44:41.791Z,2.40
2023-03-28T07:47:12.106Z,2.57
2023-03-28T07:49:41.266Z,2.00
2023-03-28T07:52:09.305Z,1.60
2023-03-28T07:54:37.360Z,2.13
2023-03-28T07:57:05.733Z,2.10
2023-03-28T07:59:33.753Z,2.57
2023-03-28T08:02:01.637Z,1.90
2023-03-28T08:04:31.054Z,1.20
2023-03-28T08:07:00.238Z,1.70
2023-03-28T08:09:28.351Z,1.70
2023-03-28T08:11:56.125Z,1.60
2023-03-28T08:14:23.873Z,1.67
2023-03-28T08:16:52.030Z,1.53
2023-03-28T08:19:19.877Z,1.57
2023-03-28T08:21:49.001Z,1.17
2023-03-28T08:24:25.265Z,1.73
2023-03-28T08:26:57.052Z,1.60
2023-03-28T08:29:25.078Z,1.83
2023-03-28T08:31:54.142Z,1.17
2023-03-28T08:34:21.830Z,1.03
2023-03-28T08:36:51.084Z,1.57
2023-03-28T08:39:19.332Z,1.43
2023-03-28T08:42:06.169Z,1.53
2023-03-28T08:44:52.750Z,1.50
2023-03-28T08:47:24.840Z,1.33
2023-03-28T08:49:57.918Z,2.20
2023-03-28T08:52:28.276Z,1.60
2023-03-28T08:55:01.334Z,1.33
2023-03-28T08:57:32.883Z,1.37
2023-03-28T09:00:08.992Z,1.70
2023-03-28T09:02:37.256Z,1.23
2023-03-28T09:05:22.047Z,1.70
2023-03-28T09:08:01.048Z,1.63
2023-03-28T09:10:36.176Z,1.23
2023-03-28T09:13:18.316Z,1.30
2023-03-28T09:15:59.348Z,1.00
2023-03-28T09:18:45.827Z,1.10
2023-03-28T09:21:19.941Z,1.17
2023-03-28T09:24:06.111Z,1.40
2023-03-28T09:26:36.531Z,1.13
2023-03-28T09:29:06.966Z,1.20
2023-03-28T09:31:40.971Z,1.30
2023-03-28T09:34:09.351Z,1.33
2023-03-28T09:36:49.343Z,1.50
2023-03-28T09:39:27.426Z,1.40
2023-03-28T09:42:01.031Z,1.80
2023-03-28T09:44:51.027Z,1.30
2023-03-28T09:51:16.543Z,1.60
2023-03-28T09:53:44.756Z,1.77
2023-03-28T09:56:24.563Z,1.27
2023-03-28T09:58:56.942Z,1.10
2023-03-28T10:01:30.912Z,0.80
2023-03-28T10:04:00.257Z,1.10
2023-03-28T10:06:31.483Z,1.40
2023-03-28T10:09:19.375Z,1.50
2023-03-28T10:11:54.845Z,1.33
2023-03-28T10:14:38.235Z,1.53
2023-03-28T10:17:08.640Z,0.90
2023-03-28T10:19:38.982Z,1.33
2023-03-28T10:22:12.216Z,1.30
2023-03-28T10:24:40.834Z,1.43
2023-03-28T10:27:18.249Z,1.20
2023-03-28T10:29:47.858Z,1.67
2023-03-28T10:32:26.119Z,1.30
2023-03-28T10:35:02.349Z,1.57
2023-03-28T10:37:32.209Z,1.20
2023-03-28T10:40:01.617Z,1.00
2023-03-28T10:42:41.462Z,1.00
2023-03-28T10:45:21.038Z,0.90
2023-03-28T10:47:51.530Z,1.03
2023-03-28T10:50:27.934Z,1.10
2023-03-28T10:53:10.859Z,1.40
2023-03-28T10:55:41.665Z,1.20
2023-03-28T10:58:17.224Z,1.07
2023-03-28T11:00:53.029Z,1.10
2023-03-28T11:03:37.519Z,1.17
2023-03-28T11:06:12.902Z,1.30
2023-03-28T11:08:49.284Z,1.23
2023-03-28T11:11:32.286Z,1.33
2023-03-28T11:14:11.749Z,1.67
2023-03-28T11:16:48.184Z,1.20
2023-03-28T11:19:30.696Z,1.27
2023-03-28T11:22:07.891Z,0.80
2023-03-28T11:24:44.859Z,1.60
2023-03-28T11:27:19.280Z,1.20
2023-03-28T11:29:52.989Z,1.00
2023-03-28T11:32:24.542Z,1.10
2023-03-28T11:35:04.437Z,1.30
2023-03-28T11:37:38.323Z,1.20
2023-03-28T11:40:14.881Z,1.23
2023-03-28T11:42:50.018Z,1.20
2023-03-28T11:45:41.996Z,1.10
2023-03-28T11:48:22.598Z,1.43
2023-03-28T11:51:00.139Z,1.53
2023-03-28T11:53:33.398Z,1.00
2023-03-28T11:56:12.514Z,1.50
2023-03-28T11:58:44.879Z,1.00
2023-03-28T12:01:18.676Z,1.47
2023-03-28T12:03:59.989Z,1.50
2023-03-28T12:06:34.716Z,1.20
2023-03-28T12:09:11.474Z,1.33
2023-03-28T12:11:44.328Z,1.10
2023-03-28T12:14:34.360Z,1.20
2023-03-28T12:17:13.360Z,0.90
2023-03-28T12:19:42.706Z,1.40
2023-03-28T12:22:21.322Z,1.33
2023-03-28T12:24:58.403Z,1.20
2023-03-28T12:27:37.267Z,1.00
2023-03-28T12:30:13.583Z,1.10
2023-03-28T12:32:49.336Z,1.33
2023-03-28T12:35:22.500Z,1.10
2023-03-28T12:38:00.707Z,1.20
2023-03-28T12:40:38.332Z,1.00
2023-03-28T12:43:07.704Z,1.40
2023-03-28T12:45:42.404Z,1.50
2023-03-28T12:48:16.728Z,1.30
2023-03-28T12:50:52.254Z,0.70
2023-03-28T12:53:23.801Z,2.10
2023-03-28T12:55:53.630Z,1.20
2023-03-28T12:58:24.561Z,1.23
2023-03-28T13:01:05.419Z,1.40
2023-03-28T13:03:46.630Z,1.20
2023-03-28T13:06:23.735Z,8.00
2023-03-28T13:09:05.321Z,1.30
2023-03-28T13:11:40.675Z,1.47
2023-03-28T13:14:42.334Z,1.50
2023-03-28T13:17:21.610Z,1.50
2023-03-28T13:19:54.491Z,1.30
2023-03-28T13:22:34.783Z,1.10
2023-03-28T13:25:25.900Z,1.30
2023-03-28T13:27:58.836Z,1.30
2023-03-28T13:30:28.799Z,1.40
2023-03-28T13:32:58.880Z,1.13
2023-03-28T13:35:45.315Z,1.30
2023-03-28T13:38:34.893Z,1.50
2023-03-28T13:41:06.518Z,1.50
2023-03-28T13:43:59.965Z,1.30
2023-03-28T13:46:32.094Z,1.13
2023-03-28T13:49:06.294Z,1.57
2023-03-28T13:51:43.100Z,1.23
2023-03-28T13:54:12.060Z,1.30
2023-03-28T13:56:44.553Z,1.57
2023-03-28T13:59:15.353Z,1.40
2023-03-28T14:01:48.313Z,1.17
2023-03-28T14:04:21.055Z,1.17
2023-03-28T14:06:51.147Z,1.00
2023-03-28T14:09:22.349Z,1.10
2023-03-28T14:11:51.631Z,1.57
2023-03-28T14:14:29.155Z,1.60
2023-03-28T14:16:58.197Z,3.10
2023-03-28T14:19:37.322Z,0.83
2023-03-28T14:22:18.786Z,1.60
2023-03-28T14:24:50.536Z,1.40
2023-03-28T14:27:30.542Z,1.60
2023-03-28T14:30:00.431Z,1.30
2023-03-28T14:32:32.244Z,1.97
2023-03-28T14:35:18.990Z,1.20
2023-03-28T14:37:52.910Z,1.60
2023-03-28T14:40:28.769Z,1.40
2023-03-28T14:43:02.285Z,1.20
2023-03-28T14:45:31.354Z,1.47
2023-03-28T14:47:59.710Z,1.20
2023-03-28T14:50:32.991Z,1.27
2023-03-28T14:53:09.381Z,1.77
2023-03-28T14:55:38.106Z,1.27
2023-03-28T14:58:07.159Z,1.27
2023-03-28T15:00:38.666Z,1.17
2023-03-28T15:03:09.731Z,0.90
2023-03-28T15:05:39.068Z,1.10
2023-03-28T15:08:25.689Z,1.30
2023-03-28T15:10:55.265Z,1.23
2023-03-28T15:13:34.588Z,1.10
2023-03-28T15:16:05.282Z,1.23
2023-03-28T15:18:44.171Z,1.40
2023-03-28T15:21:12.620Z,1.50
2023-03-28T15:23:46.996Z,0.93
2023-03-28T15:26:19.845Z,1.10
2023-03-28T15:28:48.641Z,1.90
2023-03-28T15:31:17.610Z,1.33
2023-03-28T15:33:47.975Z,1.57
2023-03-28T15:36:18.890Z,1.60
2023-03-28T15:38:51.327Z,1.50
2023-03-28T15:41:25.754Z,1.67
2023-03-28T15:44:11.598Z,1.70
2023-03-28T15:46:43.002Z,1.87
2023-03-28T15:49:12.499Z,1.33
2023-03-28T15:51:50.755Z,1.30
2023-03-28T15:54:30.694Z,1.23
2023-03-28T15:57:01.843Z,1.67
2023-03-28T15:59:35.345Z,1.43
2023-03-28T16:02:31.961Z,1.50
2023-03-28T16:05:02.019Z,1.60
2023-03-28T16:07:35.813Z,1.50
2023-03-28T16:10:06.015Z,1.90
2023-03-28T16:12:33.878Z,1.70
2023-03-28T16:15:05.544Z,1.50
2023-03-28T16:17:34.077Z,1.80
2023-03-28T16:20:18.273Z,1.77
2023-03-28T16:22:49.737Z,1.50
2023-03-28T16:25:19.567Z,3.47
2023-03-28T16:27:47.765Z,1.77
2023-03-28T16:30:20.653Z,3.60
2023-03-28T16:32:49.130Z,4.13
2023-03-28T16:35:17.410Z,2.13
2023-03-28T16:37:45.824Z,1.70
2023-03-28T16:40:15.616Z,1.87
2023-03-28T16:42:44.832Z,2.37
2023-03-28T16:45:13.823Z,1.57
2023-03-28T16:47:42.052Z,1.70
2023-03-28T16:50:10.578Z,6.33
2023-03-28T16:52:38.964Z,2.93
2023-03-28T16:55:07.754Z,5.03
2023-03-28T16:57:35.600Z,5.50
2023-03-28T17:00:05.666Z,5.23
2023-03-28T17:02:33.885Z,2.57
2023-03-28T17:05:01.771Z,2.10
2023-03-28T17:07:29.550Z,2.17
2023-03-28T17:09:57.618Z,2.67
2023-03-28T17:12:26.227Z,2.37
2023-03-28T17:14:54.016Z,2.50
2023-03-28T17:17:23.444Z,1.97
2023-03-28T17:19:51.380Z,2.30
2023-03-28T17:22:19.221Z,2.87
2023-03-28T17:24:47.202Z,4.80
2023-03-28T17:27:15.388Z,3.33
2023-03-28T17:29:43.188Z,2.60
2023-03-28T17:32:11.105Z,2.50
2023-03-28T17:34:40.757Z,1.90
2023-03-28T17:37:08.615Z,2.80
2023-03-28T17:39:37.151Z,2.90
2023-03-28T17:42:05.397Z,2.60
2023-03-28T17:44:33.818Z,3.03
2023-03-28T17:47:01.727Z,3.50
2023-03-28T17:49:29.701Z,3.70
2023-03-28T17:52:00.008Z,2.93
2023-03-28T17:54:28.005Z,2.87
2023-03-28T17:56:55.865Z,2.90
2023-03-28T17:59:23.769Z,3.30
2023-03-28T18:01:51.759Z,3.00
2023-03-28T18:04:19.618Z,2.80
2023-03-28T18:06:47.406Z,3.50
2023-03-28T18:09:16.599Z,4.40
2023-03-28T18:11:44.366Z,3.20
2023-03-28T18:14:12.399Z,3.10
2023-03-28T18:16:40.657Z,3.80
2023-03-28T18:19:12.441Z,3.37
2023-03-28T18:21:40.394Z,3.70
2023-03-28T18:24:09.103Z,4.33
2023-03-28T18:26:38.536Z,4.10
2023-03-28T18:29:06.339Z,4.07
2023-03-28T18:31:36.789Z,3.90
2023-03-28T18:34:05.198Z,9.93
2023-03-28T18:36:33.618Z,4.60
2023-03-28T18:39:02.216Z,5.17
2023-03-28T18:41:30.039Z,4.57
2023-03-28T18:43:59.910Z,4.33
2023-03-28T18:46:29.715Z,5.23
2023-03-28T18:48:59.645Z,4.77
2023-03-28T18:51:27.575Z,5.73
2023-03-28T18:53:55.573Z,5.10
2023-03-28T18:56:23.809Z,4.27
2023-03-28T18:58:52.398Z,5.60
2023-03-28T19:01:23.170Z,6.13
2023-03-28T19:03:52.161Z,4.60
2023-03-28T19:06:20.174Z,4.40
2023-03-28T19:08:48.575Z,5.30
2023-03-28T19:11:19.649Z,4.90
2023-03-28T19:13:47.544Z,5.80
2023-03-28T19:16:18.952Z,4.23
2023-03-28T19:18:48.585Z,4.20
2023-03-28T19:21:16.997Z,5.67
2023-03-28T19:23:45.697Z,6.10
2023-03-28T19:26:14.379Z,6.97
2023-03-28T19:28:43.235Z,7.80
2023-03-28T19:31:13.352Z,4.27
2023-03-28T19:33:41.765Z,4.17
2023-03-28T19:36:12.433Z,4.22
2023-03-28T19:38:41.111Z,3.60
2023-03-28T19:41:15.707Z,3.53
2023-03-28T19:43:43.945Z,5.67
2023-03-28T19:46:16.195Z,4.00
2023-03-28T19:48:44.017Z,3.80
2023-03-28T19:51:54.653Z,3.90
2023-03-28T19:54:25.646Z,3.63
2023-03-28T19:56:53.519Z,3.53
2023-03-28T19:59:21.304Z,4.53
2023-03-28T20:01:49.251Z,4.10
2023-03-28T20:04:17.821Z,8.40
2023-03-28T20:06:46.067Z,4.13
2023-03-28T20:09:13.838Z,4.03
2023-03-28T20:11:43.038Z,4.60
2023-03-28T20:14:10.968Z,3.77
2023-03-28T20:16:38.696Z,5.30
2023-03-28T20:19:06.783Z,6.17
2023-03-28T20:21:34.669Z,5.87
2023-03-28T20:24:03.853Z,5.10
2023-03-28T20:26:32.963Z,5.03
2023-03-28T20:29:02.274Z,4.80
2023-03-28T20:31:30.885Z,4.90
2023-03-28T20:33:58.851Z,5.07
2023-03-28T20:36:29.080Z,5.50
2023-03-28T20:38:56.956Z,5.40
2023-03-28T20:41:26.459Z,5.07
2023-03-28T20:44:03.675Z,6.27
2023-03-28T20:46:38.320Z,5.67
2023-03-28T20:49:08.050Z,5.00
2023-03-28T20:51:39.288Z,5.50
2023-03-28T20:54:07.705Z,4.70
2023-03-28T20:56:35.948Z,4.57
2023-03-28T20:59:14.640Z,4.60
2023-03-28T21:01:47.784Z,4.60
2023-03-28T21:04:15.843Z,4.20
2023-03-28T21:06:48.054Z,4.40
2023-03-28T21:09:18.118Z,4.93
2023-03-28T21:11:46.625Z,4.50
2023-03-28T21:14:15.422Z,4.70
2023-03-28T21:16:45.401Z,4.20
2023-03-28T21:19:13.445Z,5.07
2023-03-28T21:21:41.488Z,5.03
2023-03-28T21:24:09.570Z,5.20
2023-03-28T21:26:37.485Z,5.23
2023-03-28T21:29:05.719Z,4.50
2023-03-28T21:31:33.529Z,4.30
2023-03-28T21:34:02.749Z,4.90
2023-03-28T21:36:30.850Z,4.20
2023-03-28T21:38:58.765Z,3.87
2023-03-28T21:41:27.969Z,4.47
2023-03-28T21:43:56.625Z,5.13
2023-03-28T21:46:24.633Z,5.10
2023-03-28T21:48:52.712Z,5.70
2023-03-28T21:51:22.014Z,4.63
2023-03-28T21:53:49.864Z,4.83
2023-03-28T21:56:17.901Z,4.63
2023-03-28T21:58:57.128Z,5.60
2023-03-28T22:01:26.567Z,4.63
2023-03-28T22:03:54.610Z,4.40
2023-03-28T22:06:23.870Z,5.13
2023-03-28T22:08:55.785Z,3.97
2023-03-28T22:11:28.227Z,4.57
2023-03-28T22:14:02.802Z,4.60
2023-03-28T22:16:34.797Z,4.60
2023-03-28T22:19:06.484Z,6.03
2023-03-28T22:21:36.997Z,4.47
2023-03-28T22:24:07.133Z,4.33
2023-03-28T22:26:35.937Z,4.77
2023-03-28T22:29:05.097Z,4.43
2023-03-28T22:31:33.064Z,4.93
2023-03-28T22:34:00.973Z,4.80
2023-03-28T22:36:28.828Z,4.10
2023-03-28T22:38:58.080Z,4.43
2023-03-28T22:41:25.826Z,4.63
2023-03-28T22:43:53.587Z,4.67
2023-03-28T22:46:22.114Z,4.40
2023-03-28T22:48:54.240Z,4.67
2023-03-28T22:51:25.166Z,4.87
2023-03-28T22:53:53.266Z,4.70
2023-03-28T22:56:24.291Z,5.40
2023-03-28T22:58:53.942Z,6.07
2023-03-28T23:01:23.052Z,4.60
2023-03-28T23:03:51.964Z,4.60
2023-03-28T23:06:20.312Z,3.90
2023-03-28T23:08:48.230Z,4.17
2023-03-28T23:11:16.090Z,3.87
2023-03-28T23:13:45.328Z,3.70
2023-03-28T23:16:13.111Z,4.00
2023-03-28T23:18:40.988Z,3.60
2023-03-28T23:21:08.869Z,4.67
2023-03-28T23:23:36.991Z,4.10
2023-03-28T23:26:05.090Z,4.80
2023-03-28T23:28:33.310Z,5.27
2023-03-28T23:31:02.643Z,4.43
2023-03-28T23:33:30.604Z,4.37
2023-03-28T23:35:58.442Z,7.03
2023-03-28T23:38:26.393Z,4.00
2023-03-28T23:40:54.196Z,3.80
2023-03-28T23:43:22.305Z,3.53
2023-03-28T23:45:50.135Z,4.40
2023-03-28T23:48:19.490Z,4.03
2023-03-28T23:50:47.321Z,3.90
2023-03-28T23:53:15.150Z,4.83
2023-03-28T23:55:43.019Z,4.73
2023-03-28T23:58:10.791Z,4.13
